sensor_id;sensor_type;location;lat;lon;timestamp;P1;durP1;ratioP1;P2;durP2;ratioP2
10365;SDS011;5229;41.820;23.490;2022-12-29T00:00:03;4.30;;;3.47;;
10365;SDS011;5229;41.820;23.490;2022-12-29T00:02:32;4.03;;;3.57;;
10365;SDS011;5229;41.820;23.490;2022-12-29T00:04:59;4.13;;;3.43;;
10365;SDS011;5229;41.820;23.490;2022-12-29T00:07:25;3.53;;;3.23;;
10365;SDS011;5229;41.820;23.490;2022-12-29T00:09:54;4.27;;;3.37;;
10365;SDS011;5229;41.820;23.490;2022-12-29T00:12:20;4.17;;;3.50;;
10365;SDS011;5229;41.820;23.490;2022-12-29T00:14:47;5.23;;;3.53;;
10365;SDS011;5229;41.820;23.490;2022-12-29T00:17:31;4.57;;;3.33;;
10365;SDS011;5229;41.820;23.490;2022-12-29T00:19:58;4.53;;;3.23;;
10365;SDS011;5229;41.820;23.490;2022-12-29T00:22:42;4.53;;;3.67;;
10365;SDS011;5229;41.820;23.490;2022-12-29T00:25:27;4.23;;;3.50;;
10365;SDS011;5229;41.820;23.490;2022-12-29T00:28:12;4.93;;;3.57;;
10365;SDS011;5229;41.820;23.490;2022-12-29T00:30:58;7.43;;;6.37;;
10365;SDS011;5229;41.820;23.490;2022-12-29T00:33:42;5.73;;;3.73;;
10365;SDS011;5229;41.820;23.490;2022-12-29T00:36:27;3.90;;;3.50;;
10365;SDS011;5229;41.820;23.490;2022-12-29T00:38:58;5.10;;;3.63;;
10365;SDS011;5229;41.820;23.490;2022-12-29T00:41:47;3.80;;;3.43;;
10365;SDS011;5229;41.820;23.490;2022-12-29T00:44:37;4.80;;;3.80;;
10365;SDS011;5229;41.820;23.490;2022-12-29T00:47:04;6.57;;;4.03;;
10365;SDS011;5229;41.820;23.490;2022-12-29T00:49:31;4.03;;;3.40;;
10365;SDS011;5229;41.820;23.490;2022-12-29T00:51:58;6.70;;;4.70;;
10365;SDS011;5229;41.820;23.490;2022-12-29T00:54:27;4.13;;;3.63;;
10365;SDS011;5229;41.820;23.490;2022-12-29T00:56:56;4.00;;;3.57;;
10365;SDS011;5229;41.820;23.490;2022-12-29T00:59:23;5.07;;;3.73;;
10365;SDS011;5229;41.820;23.490;2022-12-29T01:01:51;5.30;;;4.30;;
10365;SDS011;5229;41.820;23.490;2022-12-29T01:04:19;6.00;;;3.63;;
10365;SDS011;5229;41.820;23.490;2022-12-29T01:06:47;5.13;;;4.13;;
10365;SDS011;5229;41.820;23.490;2022-12-29T01:09:14;3.90;;;3.23;;
10365;SDS011;5229;41.820;23.490;2022-12-29T01:12:00;4.50;;;3.20;;
10365;SDS011;5229;41.820;23.490;2022-12-29T01:14:27;4.20;;;3.30;;
10365;SDS011;5229;41.820;23.490;2022-12-29T01:16:54;3.83;;;3.23;;
10365;SDS011;5229;41.820;23.490;2022-12-29T01:22:47;4.53;;;3.30;;
10365;SDS011;5229;41.820;23.490;2022-12-29T01:25:13;4.23;;;3.37;;
10365;SDS011;5229;41.820;23.490;2022-12-29T01:27:42;3.80;;;2.80;;
10365;SDS011;5229;41.820;23.490;2022-12-29T01:30:09;5.53;;;3.23;;
10365;SDS011;5229;41.820;23.490;2022-12-29T01:35:59;3.23;;;2.93;;
10365;SDS011;5229;41.820;23.490;2022-12-29T01:38:26;3.90;;;3.20;;
10365;SDS011;5229;41.820;23.490;2022-12-29T01:47:24;3.23;;;2.90;;
10365;SDS011;5229;41.820;23.490;2022-12-29T01:49:56;4.13;;;2.80;;
10365;SDS011;5229;41.820;23.490;2022-12-29T01:52:26;3.67;;;2.57;;
10365;SDS011;5229;41.820;23.490;2022-12-29T01:54:55;3.83;;;3.00;;
10365;SDS011;5229;41.820;23.490;2022-12-29T01:57:24;4.03;;;3.00;;
10365;SDS011;5229;41.820;23.490;2022-12-29T01:59:56;2.50;;;2.30;;
10365;SDS011;5229;41.820;23.490;2022-12-29T02:02:27;3.40;;;2.90;;
10365;SDS011;5229;41.820;23.490;2022-12-29T02:04:54;3.90;;;2.67;;
10365;SDS011;5229;41.820;23.490;2022-12-29T02:07:24;4.10;;;2.73;;
10365;SDS011;5229;41.820;23.490;2022-12-29T02:09:53;4.67;;;3.10;;
10365;SDS011;5229;41.820;23.490;2022-12-29T02:12:21;3.40;;;2.63;;
10365;SDS011;5229;41.820;23.490;2022-12-29T02:17:54;3.83;;;2.90;;
10365;SDS011;5229;41.820;23.490;2022-12-29T02:20:44;3.73;;;3.10;;
10365;SDS011;5229;41.820;23.490;2022-12-29T02:29:58;3.63;;;2.90;;
10365;SDS011;5229;41.820;23.490;2022-12-29T02:32:33;4.13;;;2.87;;
10365;SDS011;5229;41.820;23.490;2022-12-29T02:35:09;3.50;;;2.90;;
10365;SDS011;5229;41.820;23.490;2022-12-29T02:37:43;3.33;;;2.60;;
10365;SDS011;5229;41.820;23.490;2022-12-29T02:46:39;3.93;;;3.10;;
10365;SDS011;5229;41.820;23.490;2022-12-29T02:49:13;4.40;;;3.10;;
10365;SDS011;5229;41.820;23.490;2022-12-29T02:51:46;3.40;;;2.93;;
10365;SDS011;5229;41.820;23.490;2022-12-29T02:54:20;5.00;;;2.93;;
10365;SDS011;5229;41.820;23.490;2022-12-29T02:57:05;3.00;;;2.70;;
10365;SDS011;5229;41.820;23.490;2022-12-29T02:59:34;3.47;;;2.60;;
10365;SDS011;5229;41.820;23.490;2022-12-29T03:02:06;4.87;;;2.93;;
10365;SDS011;5229;41.820;23.490;2022-12-29T03:07:57;3.27;;;2.77;;
10365;SDS011;5229;41.820;23.490;2022-12-29T03:11:07;3.57;;;2.67;;
10365;SDS011;5229;41.820;23.490;2022-12-29T03:13:56;2.67;;;2.20;;
10365;SDS011;5229;41.820;23.490;2022-12-29T03:16:47;3.03;;;2.70;;
10365;SDS011;5229;41.820;23.490;2022-12-29T03:19:17;3.07;;;2.60;;
10365;SDS011;5229;41.820;23.490;2022-12-29T03:25:06;2.60;;;2.23;;
10365;SDS011;5229;41.820;23.490;2022-12-29T03:27:38;5.43;;;3.30;;
10365;SDS011;5229;41.820;23.490;2022-12-29T03:30:07;3.20;;;2.73;;
10365;SDS011;5229;41.820;23.490;2022-12-29T03:32:36;3.47;;;3.00;;
10365;SDS011;5229;41.820;23.490;2022-12-29T03:35:19;3.53;;;2.57;;
10365;SDS011;5229;41.820;23.490;2022-12-29T03:40:48;3.17;;;2.80;;
10365;SDS011;5229;41.820;23.490;2022-12-29T03:43:18;5.37;;;3.03;;
10365;SDS011;5229;41.820;23.490;2022-12-29T03:45:46;3.07;;;2.50;;
10365;SDS011;5229;41.820;23.490;2022-12-29T03:48:13;3.03;;;2.40;;
10365;SDS011;5229;41.820;23.490;2022-12-29T03:50:40;3.10;;;2.33;;
10365;SDS011;5229;41.820;23.490;2022-12-29T03:53:07;3.47;;;2.80;;
10365;SDS011;5229;41.820;23.490;2022-12-29T03:55:33;3.10;;;2.57;;
10365;SDS011;5229;41.820;23.490;2022-12-29T03:58:01;3.43;;;2.90;;
10365;SDS011;5229;41.820;23.490;2022-12-29T04:00:28;5.33;;;3.43;;
10365;SDS011;5229;41.820;23.490;2022-12-29T04:02:55;3.93;;;2.73;;
10365;SDS011;5229;41.820;23.490;2022-12-29T04:05:22;4.90;;;3.53;;
10365;SDS011;5229;41.820;23.490;2022-12-29T04:07:49;4.57;;;3.07;;
10365;SDS011;5229;41.820;23.490;2022-12-29T04:13:06;3.10;;;2.50;;
10365;SDS011;5229;41.820;23.490;2022-12-29T04:18:43;3.47;;;2.80;;
10365;SDS011;5229;41.820;23.490;2022-12-29T04:21:09;3.60;;;2.70;;
10365;SDS011;5229;41.820;23.490;2022-12-29T04:23:37;3.80;;;2.70;;
10365;SDS011;5229;41.820;23.490;2022-12-29T04:26:04;3.53;;;3.13;;
10365;SDS011;5229;41.820;23.490;2022-12-29T04:28:35;3.43;;;3.03;;
10365;SDS011;5229;41.820;23.490;2022-12-29T04:31:02;3.47;;;2.60;;
10365;SDS011;5229;41.820;23.490;2022-12-29T04:33:29;3.63;;;2.87;;
10365;SDS011;5229;41.820;23.490;2022-12-29T04:39:13;3.53;;;2.40;;
10365;SDS011;5229;41.820;23.490;2022-12-29T04:41:39;3.10;;;2.80;;
10365;SDS011;5229;41.820;23.490;2022-12-29T04:44:08;3.03;;;2.70;;
10365;SDS011;5229;41.820;23.490;2022-12-29T04:46:34;3.20;;;2.37;;
10365;SDS011;5229;41.820;23.490;2022-12-29T04:49:01;3.50;;;2.60;;
10365;SDS011;5229;41.820;23.490;2022-12-29T04:51:33;3.67;;;2.80;;
10365;SDS011;5229;41.820;23.490;2022-12-29T04:54:00;3.27;;;2.80;;
10365;SDS011;5229;41.820;23.490;2022-12-29T04:56:27;3.57;;;2.70;;
10365;SDS011;5229;41.820;23.490;2022-12-29T04:58:53;3.50;;;2.93;;
10365;SDS011;5229;41.820;23.490;2022-12-29T05:01:21;3.70;;;2.80;;
10365;SDS011;5229;41.820;23.490;2022-12-29T05:03:49;2.97;;;2.50;;
10365;SDS011;5229;41.820;23.490;2022-12-29T05:06:16;3.33;;;2.47;;
10365;SDS011;5229;41.820;23.490;2022-12-29T05:08:43;2.90;;;2.57;;
10365;SDS011;5229;41.820;23.490;2022-12-29T05:11:09;3.10;;;2.73;;
10365;SDS011;5229;41.820;23.490;2022-12-29T05:13:36;3.27;;;2.63;;
10365;SDS011;5229;41.820;23.490;2022-12-29T05:16:03;3.37;;;2.77;;
10365;SDS011;5229;41.820;23.490;2022-12-29T05:18:31;3.10;;;2.70;;
10365;SDS011;5229;41.820;23.490;2022-12-29T05:20:58;4.33;;;2.63;;
10365;SDS011;5229;41.820;23.490;2022-12-29T05:23:25;3.33;;;2.63;;
10365;SDS011;5229;41.820;23.490;2022-12-29T05:25:52;3.17;;;2.40;;
10365;SDS011;5229;41.820;23.490;2022-12-29T05:28:18;3.60;;;2.90;;
10365;SDS011;5229;41.820;23.490;2022-12-29T05:30:47;3.03;;;2.73;;
10365;SDS011;5229;41.820;23.490;2022-12-29T05:33:14;3.50;;;2.70;;
10365;SDS011;5229;41.820;23.490;2022-12-29T05:35:42;2.73;;;2.43;;
10365;SDS011;5229;41.820;23.490;2022-12-29T05:38:09;4.87;;;3.00;;
10365;SDS011;5229;41.820;23.490;2022-12-29T05:40:36;4.50;;;3.00;;
10365;SDS011;5229;41.820;23.490;2022-12-29T05:43:03;2.97;;;2.57;;
10365;SDS011;5229;41.820;23.490;2022-12-29T05:45:29;3.70;;;3.03;;
10365;SDS011;5229;41.820;23.490;2022-12-29T05:47:56;5.37;;;3.10;;
10365;SDS011;5229;41.820;23.490;2022-12-29T05:50:23;4.10;;;3.10;;
10365;SDS011;5229;41.820;23.490;2022-12-29T05:52:51;5.37;;;3.03;;
10365;SDS011;5229;41.820;23.490;2022-12-29T05:55:18;4.83;;;3.13;;
10365;SDS011;5229;41.820;23.490;2022-12-29T05:57:45;3.20;;;2.57;;
10365;SDS011;5229;41.820;23.490;2022-12-29T06:00:12;3.87;;;3.20;;
10365;SDS011;5229;41.820;23.490;2022-12-29T06:02:39;4.70;;;3.07;;
10365;SDS011;5229;41.820;23.490;2022-12-29T06:05:06;4.47;;;3.20;;
10365;SDS011;5229;41.820;23.490;2022-12-29T06:07:34;3.57;;;2.90;;
10365;SDS011;5229;41.820;23.490;2022-12-29T06:10:02;3.80;;;2.70;;
10365;SDS011;5229;41.820;23.490;2022-12-29T06:12:29;4.80;;;3.10;;
10365;SDS011;5229;41.820;23.490;2022-12-29T06:14:56;5.37;;;3.47;;
10365;SDS011;5229;41.820;23.490;2022-12-29T06:17:23;3.63;;;3.30;;
10365;SDS011;5229;41.820;23.490;2022-12-29T06:19:50;4.93;;;2.80;;
10365;SDS011;5229;41.820;23.490;2022-12-29T06:22:16;3.40;;;3.10;;
10365;SDS011;5229;41.820;23.490;2022-12-29T06:24:43;2.93;;;2.63;;
10365;SDS011;5229;41.820;23.490;2022-12-29T06:27:11;3.90;;;2.80;;
10365;SDS011;5229;41.820;23.490;2022-12-29T06:29:38;3.40;;;3.10;;
10365;SDS011;5229;41.820;23.490;2022-12-29T06:32:06;3.27;;;2.73;;
10365;SDS011;5229;41.820;23.490;2022-12-29T06:34:33;3.23;;;2.90;;
10365;SDS011;5229;41.820;23.490;2022-12-29T06:36:59;3.90;;;2.90;;
10365;SDS011;5229;41.820;23.490;2022-12-29T06:39:26;4.23;;;3.17;;
10365;SDS011;5229;41.820;23.490;2022-12-29T06:41:54;3.47;;;2.70;;
10365;SDS011;5229;41.820;23.490;2022-12-29T06:44:22;3.77;;;3.03;;
10365;SDS011;5229;41.820;23.490;2022-12-29T06:46:49;4.07;;;3.23;;
10365;SDS011;5229;41.820;23.490;2022-12-29T06:49:16;3.60;;;2.80;;
10365;SDS011;5229;41.820;23.490;2022-12-29T06:51:43;4.87;;;3.43;;
10365;SDS011;5229;41.820;23.490;2022-12-29T06:54:10;3.33;;;2.87;;
10365;SDS011;5229;41.820;23.490;2022-12-29T06:56:37;5.00;;;3.47;;
10365;SDS011;5229;41.820;23.490;2022-12-29T06:59:04;4.77;;;3.13;;
10365;SDS011;5229;41.820;23.490;2022-12-29T07:01:32;5.23;;;3.50;;
10365;SDS011;5229;41.820;23.490;2022-12-29T07:04:00;3.77;;;2.93;;
10365;SDS011;5229;41.820;23.490;2022-12-29T07:06:27;3.50;;;2.37;;
10365;SDS011;5229;41.820;23.490;2022-12-29T07:09:06;5.03;;;3.60;;
10365;SDS011;5229;41.820;23.490;2022-12-29T07:11:34;5.50;;;3.80;;
10365;SDS011;5229;41.820;23.490;2022-12-29T07:14:00;4.27;;;3.63;;
10365;SDS011;5229;41.820;23.490;2022-12-29T07:16:27;3.70;;;3.30;;
10365;SDS011;5229;41.820;23.490;2022-12-29T07:18:56;4.37;;;3.17;;
10365;SDS011;5229;41.820;23.490;2022-12-29T07:21:24;3.80;;;3.40;;
10365;SDS011;5229;41.820;23.490;2022-12-29T07:27:04;4.20;;;2.90;;
10365;SDS011;5229;41.820;23.490;2022-12-29T07:29:31;3.10;;;2.67;;
10365;SDS011;5229;41.820;23.490;2022-12-29T07:31:58;4.03;;;2.70;;
10365;SDS011;5229;41.820;23.490;2022-12-29T07:34:26;3.03;;;2.70;;
10365;SDS011;5229;41.820;23.490;2022-12-29T07:36:53;3.10;;;2.70;;
10365;SDS011;5229;41.820;23.490;2022-12-29T07:39:19;3.40;;;3.10;;
10365;SDS011;5229;41.820;23.490;2022-12-29T07:41:46;4.37;;;3.53;;
10365;SDS011;5229;41.820;23.490;2022-12-29T07:44:13;4.20;;;3.37;;
10365;SDS011;5229;41.820;23.490;2022-12-29T07:46:40;3.30;;;2.80;;
10365;SDS011;5229;41.820;23.490;2022-12-29T07:49:06;3.57;;;2.90;;
10365;SDS011;5229;41.820;23.490;2022-12-29T07:51:35;5.00;;;3.70;;
10365;SDS011;5229;41.820;23.490;2022-12-29T07:54:02;5.97;;;3.50;;
10365;SDS011;5229;41.820;23.490;2022-12-29T07:56:29;5.10;;;4.17;;
10365;SDS011;5229;41.820;23.490;2022-12-29T07:58:55;6.93;;;5.00;;
10365;SDS011;5229;41.820;23.490;2022-12-29T08:01:22;7.83;;;6.10;;
10365;SDS011;5229;41.820;23.490;2022-12-29T08:03:49;5.13;;;4.23;;
10365;SDS011;5229;41.820;23.490;2022-12-29T08:06:16;6.23;;;4.60;;
10365;SDS011;5229;41.820;23.490;2022-12-29T08:08:44;3.70;;;3.10;;
10365;SDS011;5229;41.820;23.490;2022-12-29T08:11:11;4.40;;;3.73;;
10365;SDS011;5229;41.820;23.490;2022-12-29T08:13:38;4.57;;;3.50;;
10365;SDS011;5229;41.820;23.490;2022-12-29T08:16:05;5.23;;;3.90;;
10365;SDS011;5229;41.820;23.490;2022-12-29T08:18:32;3.63;;;2.90;;
10365;SDS011;5229;41.820;23.490;2022-12-29T08:21:01;5.17;;;3.30;;
10365;SDS011;5229;41.820;23.490;2022-12-29T08:23:28;4.87;;;4.17;;
10365;SDS011;5229;41.820;23.490;2022-12-29T08:25:58;5.63;;;4.17;;
10365;SDS011;5229;41.820;23.490;2022-12-29T08:28:37;4.83;;;3.83;;
10365;SDS011;5229;41.820;23.490;2022-12-29T08:31:04;5.07;;;3.80;;
10365;SDS011;5229;41.820;23.490;2022-12-29T08:33:31;5.00;;;4.50;;
10365;SDS011;5229;41.820;23.490;2022-12-29T08:35:59;9.40;;;6.40;;
10365;SDS011;5229;41.820;23.490;2022-12-29T08:38:26;10.23;;;6.97;;
10365;SDS011;5229;41.820;23.490;2022-12-29T08:40:54;11.30;;;7.20;;
10365;SDS011;5229;41.820;23.490;2022-12-29T08:43:22;10.57;;;8.80;;
10365;SDS011;5229;41.820;23.490;2022-12-29T08:45:49;10.03;;;8.50;;
10365;SDS011;5229;41.820;23.490;2022-12-29T08:48:16;8.80;;;7.47;;
10365;SDS011;5229;41.820;23.490;2022-12-29T08:54:06;10.17;;;8.10;;
10365;SDS011;5229;41.820;23.490;2022-12-29T08:56:33;9.43;;;7.57;;
10365;SDS011;5229;41.820;23.490;2022-12-29T08:59:01;10.57;;;8.27;;
10365;SDS011;5229;41.820;23.490;2022-12-29T09:01:46;8.57;;;6.97;;
10365;SDS011;5229;41.820;23.490;2022-12-29T09:04:13;11.77;;;8.77;;
10365;SDS011;5229;41.820;23.490;2022-12-29T09:06:40;10.87;;;7.97;;
10365;SDS011;5229;41.820;23.490;2022-12-29T09:09:07;10.57;;;8.13;;
10365;SDS011;5229;41.820;23.490;2022-12-29T09:11:33;12.50;;;9.17;;
10365;SDS011;5229;41.820;23.490;2022-12-29T09:14:02;10.60;;;8.00;;
10365;SDS011;5229;41.820;23.490;2022-12-29T09:16:28;15.10;;;11.70;;
10365;SDS011;5229;41.820;23.490;2022-12-29T09:18:55;9.97;;;7.33;;
10365;SDS011;5229;41.820;23.490;2022-12-29T09:21:22;6.33;;;5.10;;
10365;SDS011;5229;41.820;23.490;2022-12-29T09:23:49;5.60;;;4.60;;
10365;SDS011;5229;41.820;23.490;2022-12-29T09:26:15;5.33;;;4.23;;
10365;SDS011;5229;41.820;23.490;2022-12-29T09:28:42;6.80;;;5.40;;
10365;SDS011;5229;41.820;23.490;2022-12-29T09:31:11;9.53;;;8.00;;
10365;SDS011;5229;41.820;23.490;2022-12-29T09:33:38;11.33;;;7.80;;
10365;SDS011;5229;41.820;23.490;2022-12-29T09:36:05;16.20;;;11.37;;
10365;SDS011;5229;41.820;23.490;2022-12-29T09:38:33;20.17;;;12.40;;
10365;SDS011;5229;41.820;23.490;2022-12-29T09:41:01;9.33;;;7.87;;
10365;SDS011;5229;41.820;23.490;2022-12-29T09:43:41;9.10;;;6.83;;
10365;SDS011;5229;41.820;23.490;2022-12-29T09:46:22;11.23;;;9.50;;
10365;SDS011;5229;41.820;23.490;2022-12-29T09:48:51;15.13;;;11.57;;
10365;SDS011;5229;41.820;23.490;2022-12-29T09:51:24;16.30;;;10.50;;
10365;SDS011;5229;41.820;23.490;2022-12-29T09:53:53;14.93;;;11.93;;
10365;SDS011;5229;41.820;23.490;2022-12-29T09:56:23;19.57;;;14.70;;
10365;SDS011;5229;41.820;23.490;2022-12-29T09:58:52;15.83;;;11.60;;
10365;SDS011;5229;41.820;23.490;2022-12-29T10:01:26;11.93;;;9.83;;
10365;SDS011;5229;41.820;23.490;2022-12-29T10:07:22;16.43;;;12.00;;
10365;SDS011;5229;41.820;23.490;2022-12-29T10:10:01;13.57;;;10.73;;
10365;SDS011;5229;41.820;23.490;2022-12-29T10:12:41;14.23;;;11.07;;
10365;SDS011;5229;41.820;23.490;2022-12-29T10:15:23;16.00;;;11.03;;
10365;SDS011;5229;41.820;23.490;2022-12-29T10:18:03;15.30;;;10.77;;
10365;SDS011;5229;41.820;23.490;2022-12-29T10:20:47;17.27;;;12.27;;
10365;SDS011;5229;41.820;23.490;2022-12-29T10:23:21;13.37;;;10.10;;
10365;SDS011;5229;41.820;23.490;2022-12-29T10:25:54;21.73;;;14.93;;
10365;SDS011;5229;41.820;23.490;2022-12-29T10:28:22;14.67;;;11.53;;
10365;SDS011;5229;41.820;23.490;2022-12-29T10:30:51;15.73;;;12.77;;
10365;SDS011;5229;41.820;23.490;2022-12-29T10:33:21;19.03;;;12.37;;
10365;SDS011;5229;41.820;23.490;2022-12-29T10:35:51;17.23;;;13.20;;
10365;SDS011;5229;41.820;23.490;2022-12-29T10:38:22;21.87;;;15.20;;
10365;SDS011;5229;41.820;23.490;2022-12-29T10:40:55;18.83;;;12.70;;
10365;SDS011;5229;41.820;23.490;2022-12-29T10:43:25;13.80;;;10.30;;
10365;SDS011;5229;41.820;23.490;2022-12-29T10:45:54;22.63;;;16.37;;
10365;SDS011;5229;41.820;23.490;2022-12-29T10:48:27;10.27;;;8.60;;
10365;SDS011;5229;41.820;23.490;2022-12-29T10:50:57;11.90;;;9.23;;
10365;SDS011;5229;41.820;23.490;2022-12-29T10:53:27;8.67;;;6.57;;
10365;SDS011;5229;41.820;23.490;2022-12-29T10:56:01;6.80;;;5.20;;
10365;SDS011;5229;41.820;23.490;2022-12-29T10:58:42;6.87;;;4.87;;
10365;SDS011;5229;41.820;23.490;2022-12-29T11:01:12;7.07;;;5.47;;
10365;SDS011;5229;41.820;23.490;2022-12-29T11:03:47;8.77;;;5.50;;
10365;SDS011;5229;41.820;23.490;2022-12-29T11:06:21;6.53;;;4.87;;
10365;SDS011;5229;41.820;23.490;2022-12-29T11:08:52;5.87;;;4.97;;
10365;SDS011;5229;41.820;23.490;2022-12-29T11:11:23;6.43;;;4.40;;
10365;SDS011;5229;41.820;23.490;2022-12-29T11:13:56;5.37;;;4.87;;
10365;SDS011;5229;41.820;23.490;2022-12-29T11:16:28;5.57;;;4.17;;
10365;SDS011;5229;41.820;23.490;2022-12-29T11:18:58;4.80;;;4.30;;
10365;SDS011;5229;41.820;23.490;2022-12-29T11:21:26;4.60;;;4.00;;
10365;SDS011;5229;41.820;23.490;2022-12-29T11:23:58;4.93;;;4.13;;
10365;SDS011;5229;41.820;23.490;2022-12-29T11:26:26;4.27;;;3.77;;
10365;SDS011;5229;41.820;23.490;2022-12-29T11:29:11;8.73;;;4.20;;
10365;SDS011;5229;41.820;23.490;2022-12-29T11:34:38;5.57;;;3.40;;
10365;SDS011;5229;41.820;23.490;2022-12-29T11:37:06;4.17;;;3.33;;
10365;SDS011;5229;41.820;23.490;2022-12-29T11:39:38;4.57;;;3.37;;
10365;SDS011;5229;41.820;23.490;2022-12-29T11:42:12;3.80;;;3.10;;
10365;SDS011;5229;41.820;23.490;2022-12-29T11:44:42;3.50;;;3.13;;
10365;SDS011;5229;41.820;23.490;2022-12-29T11:47:13;17.90;;;7.03;;
10365;SDS011;5229;41.820;23.490;2022-12-29T11:49:50;3.23;;;2.93;;
10365;SDS011;5229;41.820;23.490;2022-12-29T11:52:20;4.93;;;3.30;;
10365;SDS011;5229;41.820;23.490;2022-12-29T11:54:49;3.43;;;3.13;;
10365;SDS011;5229;41.820;23.490;2022-12-29T11:57:18;2.60;;;2.40;;
10365;SDS011;5229;41.820;23.490;2022-12-29T11:59:49;3.70;;;3.17;;
10365;SDS011;5229;41.820;23.490;2022-12-29T12:05:08;11.57;;;6.83;;
10365;SDS011;5229;41.820;23.490;2022-12-29T12:07:40;3.10;;;2.80;;
10365;SDS011;5229;41.820;23.490;2022-12-29T12:10:16;3.90;;;3.10;;
10365;SDS011;5229;41.820;23.490;2022-12-29T12:12:50;3.80;;;3.07;;
10365;SDS011;5229;41.820;23.490;2022-12-29T12:15:20;4.23;;;3.30;;
10365;SDS011;5229;41.820;23.490;2022-12-29T12:17:52;5.43;;;3.27;;
10365;SDS011;5229;41.820;23.490;2022-12-29T12:20:25;3.73;;;3.03;;
10365;SDS011;5229;41.820;23.490;2022-12-29T12:23:24;3.47;;;2.77;;
10365;SDS011;5229;41.820;23.490;2022-12-29T12:25:59;6.57;;;4.57;;
10365;SDS011;5229;41.820;23.490;2022-12-29T12:28:34;4.20;;;3.57;;
10365;SDS011;5229;41.820;23.490;2022-12-29T12:31:06;3.43;;;3.13;;
10365;SDS011;5229;41.820;23.490;2022-12-29T12:33:44;5.17;;;2.93;;
10365;SDS011;5229;41.820;23.490;2022-12-29T12:36:20;4.43;;;3.30;;
10365;SDS011;5229;41.820;23.490;2022-12-29T12:39:10;3.73;;;3.07;;
10365;SDS011;5229;41.820;23.490;2022-12-29T12:45:04;4.07;;;3.53;;
10365;SDS011;5229;41.820;23.490;2022-12-29T12:47:55;4.07;;;3.30;;
10365;SDS011;5229;41.820;23.490;2022-12-29T12:50:38;3.20;;;2.90;;
10365;SDS011;5229;41.820;23.490;2022-12-29T12:53:22;3.40;;;2.67;;
10365;SDS011;5229;41.820;23.490;2022-12-29T12:59:05;5.13;;;3.97;;
10365;SDS011;5229;41.820;23.490;2022-12-29T13:01:42;6.87;;;3.83;;
10365;SDS011;5229;41.820;23.490;2022-12-29T13:07:27;3.90;;;3.20;;
10365;SDS011;5229;41.820;23.490;2022-12-29T13:10:19;4.20;;;3.67;;
10365;SDS011;5229;41.820;23.490;2022-12-29T13:12:55;4.23;;;3.83;;
10365;SDS011;5229;41.820;23.490;2022-12-29T13:15:40;3.60;;;2.97;;
10365;SDS011;5229;41.820;23.490;2022-12-29T13:18:17;3.80;;;3.33;;
10365;SDS011;5229;41.820;23.490;2022-12-29T13:20:52;5.77;;;4.03;;
10365;SDS011;5229;41.820;23.490;2022-12-29T13:23:23;3.87;;;3.13;;
10365;SDS011;5229;41.820;23.490;2022-12-29T13:25:59;3.53;;;3.07;;
10365;SDS011;5229;41.820;23.490;2022-12-29T13:28:35;3.63;;;3.00;;
10365;SDS011;5229;41.820;23.490;2022-12-29T13:31:32;3.07;;;2.67;;
10365;SDS011;5229;41.820;23.490;2022-12-29T13:34:10;4.47;;;2.90;;
10365;SDS011;5229;41.820;23.490;2022-12-29T13:36:43;6.33;;;2.60;;
10365;SDS011;5229;41.820;23.490;2022-12-29T13:39:15;2.97;;;2.67;;
10365;SDS011;5229;41.820;23.490;2022-12-29T13:41:48;3.10;;;2.80;;
10365;SDS011;5229;41.820;23.490;2022-12-29T13:44:18;2.93;;;2.60;;
10365;SDS011;5229;41.820;23.490;2022-12-29T13:46:48;3.83;;;3.00;;
10365;SDS011;5229;41.820;23.490;2022-12-29T13:49:16;2.70;;;2.50;;
10365;SDS011;5229;41.820;23.490;2022-12-29T13:51:46;3.47;;;2.50;;
10365;SDS011;5229;41.820;23.490;2022-12-29T13:54:25;3.00;;;2.70;;
10365;SDS011;5229;41.820;23.490;2022-12-29T14:00:14;3.03;;;2.47;;
10365;SDS011;5229;41.820;23.490;2022-12-29T14:02:46;3.50;;;2.80;;
10365;SDS011;5229;41.820;23.490;2022-12-29T14:05:35;5.07;;;3.30;;
10365;SDS011;5229;41.820;23.490;2022-12-29T14:08:03;4.20;;;2.80;;
10365;SDS011;5229;41.820;23.490;2022-12-29T14:10:32;2.77;;;2.47;;
10365;SDS011;5229;41.820;23.490;2022-12-29T14:13:04;2.60;;;2.40;;
10365;SDS011;5229;41.820;23.490;2022-12-29T14:15:34;4.27;;;2.83;;
10365;SDS011;5229;41.820;23.490;2022-12-29T14:18:13;2.40;;;2.20;;
10365;SDS011;5229;41.820;23.490;2022-12-29T14:20:50;2.83;;;2.50;;
10365;SDS011;5229;41.820;23.490;2022-12-29T14:23:37;3.00;;;2.40;;
10365;SDS011;5229;41.820;23.490;2022-12-29T14:26:13;2.93;;;2.03;;
10365;SDS011;5229;41.820;23.490;2022-12-29T14:28:42;2.77;;;2.50;;
10365;SDS011;5229;41.820;23.490;2022-12-29T14:31:34;3.23;;;2.23;;
10365;SDS011;5229;41.820;23.490;2022-12-29T14:34:16;2.47;;;2.27;;
10365;SDS011;5229;41.820;23.490;2022-12-29T14:36:54;1.93;;;1.83;;
10365;SDS011;5229;41.820;23.490;2022-12-29T14:39:30;2.60;;;2.40;;
10365;SDS011;5229;41.820;23.490;2022-12-29T14:42:00;3.20;;;2.00;;
10365;SDS011;5229;41.820;23.490;2022-12-29T14:44:30;4.03;;;2.30;;
10365;SDS011;5229;41.820;23.490;2022-12-29T14:47:01;2.50;;;2.30;;
10365;SDS011;5229;41.820;23.490;2022-12-29T14:52:40;10.33;;;7.53;;
10365;SDS011;5229;41.820;23.490;2022-12-29T14:55:28;2.53;;;2.23;;
10365;SDS011;5229;41.820;23.490;2022-12-29T14:58:03;2.57;;;2.37;;
10365;SDS011;5229;41.820;23.490;2022-12-29T15:00:32;3.00;;;2.33;;
10365;SDS011;5229;41.820;23.490;2022-12-29T15:03:04;3.20;;;2.57;;
10365;SDS011;5229;41.820;23.490;2022-12-29T15:05:34;2.83;;;2.07;;
10365;SDS011;5229;41.820;23.490;2022-12-29T15:08:04;2.73;;;2.10;;
10365;SDS011;5229;41.820;23.490;2022-12-29T15:10:33;3.03;;;2.13;;
10365;SDS011;5229;41.820;23.490;2022-12-29T15:13:12;4.37;;;2.93;;
10365;SDS011;5229;41.820;23.490;2022-12-29T15:15:42;3.07;;;2.50;;
10365;SDS011;5229;41.820;23.490;2022-12-29T15:18:18;3.07;;;1.67;;
10365;SDS011;5229;41.820;23.490;2022-12-29T15:20:50;2.73;;;2.43;;
10365;SDS011;5229;41.820;23.490;2022-12-29T15:23:37;5.23;;;3.13;;
10365;SDS011;5229;41.820;23.490;2022-12-29T15:26:05;3.37;;;2.17;;
10365;SDS011;5229;41.820;23.490;2022-12-29T15:28:37;2.40;;;2.20;;
10365;SDS011;5229;41.820;23.490;2022-12-29T15:31:18;2.37;;;2.10;;
10365;SDS011;5229;41.820;23.490;2022-12-29T15:33:48;2.50;;;2.10;;
10365;SDS011;5229;41.820;23.490;2022-12-29T15:36:18;5.63;;;2.53;;
10365;SDS011;5229;41.820;23.490;2022-12-29T15:38:45;2.43;;;2.20;;
10365;SDS011;5229;41.820;23.490;2022-12-29T15:41:20;2.90;;;2.23;;
10365;SDS011;5229;41.820;23.490;2022-12-29T15:43:53;3.50;;;2.60;;
10365;SDS011;5229;41.820;23.490;2022-12-29T15:46:29;3.57;;;2.50;;
10365;SDS011;5229;41.820;23.490;2022-12-29T15:48:58;2.67;;;2.27;;
10365;SDS011;5229;41.820;23.490;2022-12-29T15:51:27;2.43;;;2.20;;
10365;SDS011;5229;41.820;23.490;2022-12-29T15:53:57;2.83;;;2.23;;
10365;SDS011;5229;41.820;23.490;2022-12-29T15:56:24;2.70;;;2.40;;
10365;SDS011;5229;41.820;23.490;2022-12-29T15:58:55;3.53;;;3.13;;
10365;SDS011;5229;41.820;23.490;2022-12-29T16:01:24;6.57;;;5.77;;
10365;SDS011;5229;41.820;23.490;2022-12-29T16:03:55;5.20;;;3.60;;
10365;SDS011;5229;41.820;23.490;2022-12-29T16:09:32;3.10;;;2.80;;
10365;SDS011;5229;41.820;23.490;2022-12-29T16:12:00;5.13;;;4.57;;
10365;SDS011;5229;41.820;23.490;2022-12-29T16:14:30;10.53;;;8.50;;
10365;SDS011;5229;41.820;23.490;2022-12-29T16:17:03;5.03;;;4.40;;
10365;SDS011;5229;41.820;23.490;2022-12-29T16:19:36;4.87;;;4.03;;
10365;SDS011;5229;41.820;23.490;2022-12-29T16:22:10;3.67;;;3.07;;
10365;SDS011;5229;41.820;23.490;2022-12-29T16:25:12;5.00;;;4.20;;
10365;SDS011;5229;41.820;23.490;2022-12-29T16:27:44;15.20;;;9.80;;
10365;SDS011;5229;41.820;23.490;2022-12-29T16:30:17;11.03;;;8.07;;
10365;SDS011;5229;41.820;23.490;2022-12-29T16:32:46;12.33;;;7.60;;